DW4636 Weather Reports


time (UTC)temp
F
wind
direction
speed
knots
gust
knots
rain 1hr
in
rain 24hr
in
rain mn
in
humidity
%
barometer
mb
20210920060045 59 5 0.0 0.0 0.00 0.00 0.00 79 1018.3
20210920054614 59 5 0.0 0.0 0.00 0.00 0.00 78 1018.3
20210920053015 60 5 0.0 0.0 0.00 0.00 0.00 78 1018.3
20210920051525 60 5 0.0 0.0 0.00 0.00 0.00 77 1018.3
20210920050014 60 5 0.0 0.0 0.00 0.00 0.00 77 1018.3
20210920044552 60 5 0.0 0.0 0.00 0.00 0.00 76 1018.2
20210920043025 61 5 0.0 0.0 0.00 0.00 0.00 76 1018.3
20210920041508 61 5 0.0 0.0 0.00 0.00 0.00 75 1018.4
20210920040006 61 5 0.0 0.0 0.00 0.00 0.00 75 1018.3
20210920034504 61 5 0.0 0.0 0.00 0.00 0.00 74 1018.3
20210920033012 62 5 0.0 0.0 0.00 0.00 0.00 74 1018.2
20210920031503 62 5 0.0 0.0 0.00 0.00 0.00 74 1018.4
20210920030011 62 5 0.0 0.0 0.00 0.00 0.00 74 1018.3
20210920024514 63 5 0.0 0.0 0.00 0.00 0.00 73 1018.2
20210920023001 63 5 0.0 0.0 0.00 0.00 0.00 72 1018.2
20210920021501 63 5 0.0 0.0 0.00 0.00 0.00 71 1018.1
20210920020001 64 5 0.0 0.0 0.00 0.00 0.00 71 1017.9
20210920014743 64 5 0.0 0.0 0.00 0.00 0.00 70 1018.0
20210920013131 65 5 0.0 0.0 0.00 0.00 0.00 70 1018.0
20210920011629 66 5 0.0 0.0 0.00 0.00 0.00 69 1017.9
20210920010224 66 5 0.0 0.0 0.00 0.00 0.00 68 1017.7
20210920004708 67 5 0.0 0.0 0.00 0.00 0.00 67 1017.6
20210920003129 68 5 0.0 0.0 0.00 0.00 0.00 65 1017.4
20210920001632 69 5 0.0 0.0 0.00 0.00 0.00 64 1017.2
20210920000107 70 5 0.0 0.0 0.00 0.00 0.00 62 1017.2
20210919234641 71 5 0.0 0.0 0.00 0.00 0.00 60 1017.2
20210919233155 72 5 0.0 0.0 0.00 0.00 0.00 58 1017.2
20210919231635 73 5 0.0 0.0 0.00 0.00 0.00 55 1017.0
20210919230107 74 5 0.0 0.0 0.00 0.00 0.00 54 1017.0
20210919224740 75 5 0.0 0.0 0.00 0.00 0.00 53 1017.0
20210919223140 75 5 0.0 0.0 0.00 0.00 0.00 52 1017.0
20210919221755 76 5 0.0 0.0 0.00 0.00 0.00 50 1017.0
20210919220321 76 5 0.9 0.0 0.00 0.00 0.00 47 1016.8
20210919214640 77 17 0.9 0.0 0.00 0.00 0.00 47 1016.8
20210919213116 77 18 1.7 0.0 0.00 0.00 0.00 44 1016.9
20210919211618 78 16 0.9 0.0 0.00 0.00 0.00 44 1017.0
20210919210134 78 18 0.9 0.0 0.00 0.00 0.00 42 1016.9
20210919204708 79 9 1.7 0.0 0.00 0.00 0.00 45 1017.0
20210919203055 80 155 1.7 0.0 0.00 0.00 0.00 40 1017.0
20210919201550 82 34 1.7 0.0 0.00 0.00 0.00 41 1017.2
20210919200109 83 11 0.9 0.0 0.00 0.00 0.00 38 1017.4
20210919194613 83 12 1.7 0.0 0.00 0.00 0.00 40 1017.4
20210919193043 83 28 1.7 0.0 0.00 0.00 0.00 37 1017.6
20210919191623 83 360 1.7 0.0 0.00 0.00 0.00 38 1017.7
20210919190110 83 15 1.7 0.0 0.00 0.00 0.00 41 1018.0
20210919184713 83 145 0.9 0.0 0.00 0.00 0.00 42 1018.1
20210919183118 83 28 1.7 0.0 0.00 0.00 0.00 39 1018.2
20210919181619 83 16 1.7 0.0 0.00 0.00 0.00 41 1018.3
20210919180104 82 340 1.7 0.0 0.00 0.00 0.00 43 1018.6
20210919174548 82 163 0.9 0.0 0.00 0.00 0.00 43 1018.7
20210919173049 82 17 1.7 0.0 0.00 0.00 0.00 46 1018.8
20210919171614 81 78 0.9 0.0 0.00 0.00 0.00 48 1018.9
20210919170130 80 26 1.7 0.0 0.00 0.00 0.00 50 1019.1
20210919164540 80 335 1.7 0.0 0.00 0.00 0.00 52 1018.9
20210919163033 80 61 1.7 0.0 0.00 0.00 0.00 55 1019.1
20210919161552 80 5 2.6 0.0 0.00 0.00 0.00 56 1019.2
20210919160112 80 21 1.7 0.0 0.00 0.00 0.00 59 1019.3
20210919154544 78 161 1.7 0.0 0.00 0.00 0.00 63 1019.3
20210919153021 78 13 1.7 0.0 0.00 0.00 0.00 64 1019.3
20210919151523 77 36 0.9 0.0 0.00 0.00 0.00 65 1019.4
20210919150024 76 355 0.9 0.0 0.00 0.00 0.00 69 1019.3
20210919144508 75 26 1.7 0.0 0.00 0.00 0.00 69 1019.4
20210919143005 73 167 0.9 0.0 0.00 0.00 0.00 72 1019.5
20210919141845 71 194 0.9 0.0 0.00 0.00 0.00 78 1019.4
20210919140101 69 5 0.9 0.0 0.00 0.00 0.00 84 1019.5
20210919134623 66 5 1.7 0.0 0.00 0.00 0.00 89 1019.2
20210919133151 65 103 0.9 0.0 0.00 0.00 0.00 92 1019.2
20210919131608 63 15 0.9 0.0 0.00 0.00 0.00 93 1019.1
20210919130110 61 24 0.9 0.0 0.00 0.00 0.00 92 1018.9
20210919124705 60 355 0.9 0.0 0.00 0.00 0.00 92 1018.9
20210919123053 60 5 0.0 0.0 0.00 0.00 0.00 92 1019.0
20210919121635 59 5 0.0 0.0 0.00 0.00 0.00 91 1019.1
20210919120118 59 5 0.0 0.0 0.00 0.00 0.00 91 1019.1
20210919114629 59 5 0.0 0.0 0.00 0.00 0.00 90 1019.0
20210919113110 59 5 0.0 0.0 0.00 0.00 0.00 90 1019.0
20210919111550 59 5 0.0 0.0 0.00 0.00 0.00 90 1018.8
20210919110051 59 5 0.0 0.0 0.00 0.00 0.00 90 1018.9
20210919104553 59 5 0.0 0.0 0.00 0.00 0.00 90 1018.7
20210919103054 60 5 0.0 0.0 0.00 0.00 0.00 90 1018.4
20210919101622 60 5 0.0 0.0 0.00 0.00 0.00 89 1018.4
20210919100036 60 5 0.0 0.0 0.00 0.00 0.00 90 1018.4
20210919094604 60 5 0.0 0.0 0.00 0.00 0.00 89 1018.2
20210919093039 60 5 0.0 0.0 0.00 0.00 0.00 89 1018.1
20210919091538 60 5 0.0 0.0 0.00 0.00 0.00 89 1017.9
20210919090034 60 5 0.0 0.0 0.00 0.00 0.00 88 1017.7
20210919084527 61 5 0.0 0.0 0.00 0.00 0.00 88 1017.6
20210919083029 61 5 0.0 0.0 0.00 0.00 0.00 88 1017.6
20210919081536 61 5 0.0 0.0 0.00 0.00 0.00 88 1017.6
20210919080023 61 5 0.0 0.0 0.00 0.00 0.00 88 1017.6
20210919074600 61 9 0.0 0.0 0.00 0.00 0.00 87 1017.7
20210919073049 61 9 0.0 0.0 0.00 0.00 0.00 87 1017.7
20210919071601 62 9 0.0 0.0 0.00 0.00 0.00 87 1017.7
20210919070017 62 9 0.0 0.0 0.00 0.00 0.00 86 1017.9
20210919064538 62 9 0.0 0.0 0.00 0.00 0.00 86 1018.0
20210919063033 63 9 0.0 0.0 0.00 0.00 0.00 86 1018.0
20210919061530 63 9 0.0 0.0 0.00 0.00 0.00 86 1017.9